Time;durP1;ratioP1;P1;durP2;ratioP2;P2;SDS_P1;SDS_P2;PMS_P1;PMS_P2;Temp;Humidity;BMP_temperature;BMP_pressure;BME280_temperature;BME280_humidity;BME280_pressure;Samples;Min_cycle;Max_cycle;Signal;HPM_P1;HPM_P2
2021/07/08 00:01:54;;;;;;;6.75;3.83;;;16.50;99.90;;;;;;6124081;23;20175;-81
2021/07/08 00:04:21;;;;;;;8.30;3.58;;;16.60;99.90;;;;;;6124725;23;20173;-81
2021/07/08 00:06:48;;;;;;;5.65;3.53;;;16.30;99.90;;;;;;6124858;23;20722;-81
2021/07/08 00:09:15;;;;;;;7.13;3.50;;;16.20;99.90;;;;;;6124591;23;20196;-80
2021/07/08 00:11:42;;;;;;;5.68;3.45;;;16.10;99.90;;;;;;6124032;23;20181;-83
2021/07/08 00:14:09;;;;;;;4.40;3.22;;;16.00;99.90;;;;;;6125506;23;20181;-80
2021/07/08 00:16:38;;;;;;;5.15;3.33;;;15.90;99.90;;;;;;6124548;23;20177;-80
2021/07/08 00:19:06;;;;;;;5.95;3.58;;;16.00;99.90;;;;;;6125065;23;20280;-80
2021/07/08 00:21:33;;;;;;;4.70;3.17;;;16.10;99.90;;;;;;6124087;23;20263;-80
2021/07/08 00:24:00;;;;;;;8.70;3.20;;;16.00;99.90;;;;;;6123718;23;21000;-80
2021/07/08 00:26:27;;;;;;;4.28;3.05;;;15.90;99.90;;;;;;6123857;23;20691;-80
2021/07/08 00:28:54;;;;;;;4.53;3.22;;;16.00;99.90;;;;;;6124451;23;20284;-81
2021/07/08 00:31:21;;;;;;;6.97;3.83;;;16.10;99.90;;;;;;6124617;23;20208;-83
2021/07/08 00:33:49;;;;;;;4.38;3.33;;;16.20;99.90;;;;;;6124220;23;20259;-81
2021/07/08 00:36:16;;;;;;;5.20;3.20;;;16.20;99.90;;;;;;6124275;23;20197;-80
2021/07/08 00:38:43;;;;;;;11.82;3.30;;;16.10;99.90;;;;;;6124804;23;20229;-81
2021/07/08 00:41:10;;;;;;;6.97;3.83;;;16.20;99.90;;;;;;6124055;23;20232;-80
2021/07/08 00:43:37;;;;;;;6.50;3.40;;;16.30;99.90;;;;;;6124490;23;20162;-82
2021/07/08 00:46:05;;;;;;;3.40;2.80;;;16.30;99.90;;;;;;6123829;23;20205;-81
2021/07/08 00:48:32;;;;;;;9.40;3.95;;;16.40;99.90;;;;;;6122213;23;20201;-81
2021/07/08 00:51:01;;;;;;;6.75;3.42;;;16.20;99.90;;;;;;6124031;23;20209;-81
2021/07/08 00:53:27;;;;;;;8.85;3.40;;;16.10;99.90;;;;;;6124997;23;20205;-81
2021/07/08 00:55:58;;;;;;;4.60;3.17;;;16.20;99.90;;;;;;6124387;23;20224;-81
2021/07/08 00:58:25;;;;;;;4.43;3.70;;;16.20;99.90;;;;;;6122966;23;20201;-81
2021/07/08 01:00:52;;;;;;;5.10;3.22;;;15.90;99.90;;;;;;6123487;23;20255;-80
2021/07/08 01:03:20;;;;;;;5.10;3.58;;;15.80;99.90;;;;;;6123769;23;20177;-82
2021/07/08 01:05:49;;;;;;;7.13;3.70;;;15.90;99.90;;;;;;6123776;23;20261;-80
2021/07/08 01:08:18;;;;;;;7.75;3.60;;;15.80;99.90;;;;;;6124420;23;20181;-81
2021/07/08 01:10:47;;;;;;;5.05;3.30;;;15.90;99.90;;;;;;6123310;23;20208;-82
2021/07/08 01:13:14;;;;;;;5.40;3.60;;;15.80;99.90;;;;;;6123214;23;20177;-80
2021/07/08 01:15:41;;;;;;;6.95;3.85;;;15.70;99.90;;;;;;6125022;23;20547;-80
2021/07/08 01:18:08;;;;;;;6.27;3.17;;;15.60;99.90;;;;;;6123882;23;20645;-82
2021/07/08 01:20:36;;;;;;;7.47;3.40;;;15.60;99.90;;;;;;6124288;23;20287;-80
2021/07/08 01:23:04;;;;;;;8.77;3.55;;;15.60;99.90;;;;;;6123830;23;20185;-80
2021/07/08 01:25:33;;;;;;;7.93;3.58;;;15.50;99.90;;;;;;6123535;23;20280;-81
2021/07/08 01:28:01;;;;;;;10.30;4.32;;;15.50;99.90;;;;;;6124166;23;20264;-80
2021/07/08 01:30:29;;;;;;;13.63;4.05;;;15.60;99.90;;;;;;6123712;23;20275;-82
2021/07/08 01:32:56;;;;;;;7.45;3.55;;;15.30;99.90;;;;;;6123805;23;20181;-80
2021/07/08 01:35:23;;;;;;;6.97;3.40;;;15.10;99.90;;;;;;6122758;23;20191;-81
2021/07/08 01:37:50;;;;;;;9.20;3.03;;;15.00;99.90;;;;;;6122002;23;20264;-80
2021/07/08 01:40:19;;;;;;;6.90;3.50;;;14.90;99.90;;;;;;6122820;23;20235;-80
2021/07/08 01:42:47;;;;;;;8.77;4.20;;;15.00;99.90;;;;;;6124017;23;20280;-81
2021/07/08 01:45:16;;;;;;;7.83;3.50;;;15.00;99.90;;;;;;6121927;23;20277;-81
2021/07/08 01:47:44;;;;;;;8.90;3.60;;;15.40;99.90;;;;;;6124198;23;20256;-80
2021/07/08 01:50:14;;;;;;;6.63;3.17;;;15.50;99.90;;;;;;6121718;23;20569;-81
2021/07/08 01:52:41;;;;;;;6.85;3.10;;;15.50;99.90;;;;;;6126500;23;20231;-80
2021/07/08 01:55:09;;;;;;;5.65;3.50;;;15.60;99.90;;;;;;6126098;23;20208;-82
2021/07/08 01:57:41;;;;;;;9.80;4.00;;;15.40;99.90;;;;;;6125823;23;20829;-81
2021/07/08 02:00:09;;;;;;;5.68;3.47;;;15.20;99.90;;;;;;6125021;23;20197;-82
2021/07/08 02:02:36;;;;;;;10.15;4.13;;;15.10;99.90;;;;;;6125544;23;20177;-81
2021/07/08 02:05:04;;;;;;;8.17;3.90;;;14.90;99.90;;;;;;6126462;23;20208;-80
2021/07/08 02:07:31;;;;;;;7.20;3.97;;;15.10;99.90;;;;;;6125927;23;20220;-81
2021/07/08 02:09:58;;;;;;;6.50;3.73;;;15.10;99.90;;;;;;6125636;23;20229;-81
2021/07/08 02:12:25;;;;;;;6.87;3.63;;;15.30;99.90;;;;;;6126855;23;20280;-82
2021/07/08 02:14:53;;;;;;;8.10;3.63;;;15.40;99.90;;;;;;6125727;23;20216;-81
2021/07/08 02:17:20;;;;;;;8.47;4.17;;;15.60;99.90;;;;;;6125982;23;20559;-80
2021/07/08 02:19:46;;;;;;;11.35;4.53;;;15.60;99.90;;;;;;6125337;23;20283;-81
2021/07/08 02:22:13;;;;;;;15.77;5.65;;;15.70;99.90;;;;;;6126576;23;20216;-81
2021/07/08 02:24:40;;;;;;;11.48;6.50;;;15.90;99.90;;;;;;6125460;23;20488;-80
2021/07/08 02:27:07;;;;;;;5.07;3.85;;;15.80;99.90;;;;;;6125427;23;20706;-81
2021/07/08 02:29:34;;;;;;;11.00;5.45;;;15.70;99.90;;;;;;6123091;23;20581;-81
2021/07/08 02:32:02;;;;;;;8.07;4.13;;;15.60;99.90;;;;;;6125994;23;20213;-81
2021/07/08 02:34:29;;;;;;;11.13;4.30;;;15.80;99.90;;;;;;6126618;23;20244;-81
2021/07/08 02:36:56;;;;;;;9.35;3.63;;;16.00;99.90;;;;;;6126529;23;20184;-81
2021/07/08 02:39:23;;;;;;;6.90;3.50;;;15.80;99.90;;;;;;6126772;23;20272;-83
2021/07/08 02:41:50;;;;;;;6.03;3.60;;;15.60;99.90;;;;;;6126295;23;20185;-81
2021/07/08 02:44:17;;;;;;;9.82;3.88;;;15.70;99.90;;;;;;6126766;23;20188;-80
2021/07/08 02:46:44;;;;;;;7.40;3.63;;;15.70;99.90;;;;;;6126365;23;20197;-81
2021/07/08 02:49:12;;;;;;;7.28;3.42;;;15.50;99.90;;;;;;6126236;23;20228;-80
2021/07/08 02:51:39;;;;;;;7.40;3.53;;;15.70;99.90;;;;;;6126032;23;20212;-81
2021/07/08 02:54:06;;;;;;;7.35;3.38;;;15.80;99.90;;;;;;6126365;23;20579;-82
2021/07/08 02:56:32;;;;;;;8.35;3.65;;;15.70;99.90;;;;;;6126137;23;20225;-81
2021/07/08 02:58:59;;;;;;;7.60;3.90;;;15.80;99.90;;;;;;6128523;23;20280;-81
2021/07/08 03:01:26;;;;;;;8.77;3.63;;;15.90;99.90;;;;;;6127577;23;20177;-81
2021/07/08 03:03:53;;;;;;;4.87;3.60;;;15.90;99.90;;;;;;6126971;23;20208;-81
2021/07/08 03:06:21;;;;;;;9.80;4.10;;;15.70;99.90;;;;;;6124629;23;20595;-81
2021/07/08 03:08:48;;;;;;;10.90;4.22;;;15.70;99.90;;;;;;6125808;23;20272;-81
2021/07/08 03:11:15;;;;;;;7.93;4.35;;;15.70;99.90;;;;;;6126585;23;20260;-81
2021/07/08 03:13:43;;;;;;;8.13;4.40;;;15.70;99.90;;;;;;6127742;23;20579;-82
2021/07/08 03:16:10;;;;;;;15.13;3.90;;;15.70;99.90;;;;;;6128273;23;20177;-80
2021/07/08 03:18:37;;;;;;;14.57;4.35;;;15.70;99.90;;;;;;6127873;23;20197;-81
2021/07/08 03:21:04;;;;;;;9.57;4.60;;;15.60;99.90;;;;;;6127589;23;20263;-81
2021/07/08 03:23:34;;;;;;;6.97;4.87;;;15.60;99.90;;;;;;6127816;23;20267;-81
2021/07/08 03:26:01;;;;;;;8.50;5.03;;;15.50;99.90;;;;;;6128059;23;20221;-81
2021/07/08 03:28:28;;;;;;;10.65;5.10;;;15.70;99.90;;;;;;6127792;23;20557;-81
2021/07/08 03:30:55;;;;;;;9.73;4.63;;;15.90;99.90;;;;;;6127961;23;20631;-81
2021/07/08 03:33:22;;;;;;;8.45;4.07;;;16.00;99.90;;;;;;6127816;23;20181;-81
2021/07/08 03:35:49;;;;;;;9.85;4.30;;;16.00;99.90;;;;;;6128535;23;20180;-81
2021/07/08 03:38:16;;;;;;;7.97;4.20;;;15.90;99.90;;;;;;6127734;23;20231;-81
2021/07/08 03:40:44;;;;;;;8.68;4.20;;;15.80;99.90;;;;;;6126863;23;20212;-81
2021/07/08 03:43:11;;;;;;;7.05;4.07;;;15.70;99.90;;;;;;6127826;23;20515;-80
2021/07/08 03:45:38;;;;;;;8.13;4.07;;;15.80;99.90;;;;;;6128088;23;20260;-81
2021/07/08 03:48:06;;;;;;;10.85;6.22;;;15.60;99.90;;;;;;6127256;23;20204;-82
2021/07/08 03:50:33;;;;;;;13.35;6.30;;;15.70;99.90;;;;;;6126383;23;20280;-81
2021/07/08 03:53:00;;;;;;;7.00;4.22;;;15.90;99.90;;;;;;6128028;23;20248;-80
2021/07/08 03:55:28;;;;;;;10.55;4.60;;;15.80;99.90;;;;;;6128003;23;20185;-81
2021/07/08 03:57:57;;;;;;;10.18;3.90;;;15.70;99.90;;;;;;6128187;23;20256;-81
2021/07/08 04:00:31;;;;;;;7.80;4.50;;;15.60;99.90;;;;;;6127266;23;20208;-81
2021/07/08 04:02:59;;;;;;;13.50;4.78;;;15.70;99.90;;;;;;6126474;23;20241;-80
2021/07/08 04:05:26;;;;;;;18.58;5.03;;;15.80;99.90;;;;;;6126971;23;20263;-81
2021/07/08 04:07:53;;;;;;;9.88;4.82;;;15.80;99.90;;;;;;6127091;23;20193;-81
2021/07/08 04:10:20;;;;;;;6.82;4.50;;;15.90;99.90;;;;;;6127189;23;20591;-80
2021/07/08 04:12:47;;;;;;;9.63;4.72;;;16.10;99.90;;;;;;6125900;23;21032;-81
2021/07/08 04:15:15;;;;;;;8.35;4.45;;;16.10;99.90;;;;;;6125589;23;20260;-81
2021/07/08 04:17:42;;;;;;;12.15;4.40;;;16.20;99.90;;;;;;6126275;23;20177;-80
2021/07/08 04:20:12;;;;;;;10.20;5.20;;;16.20;99.90;;;;;;6124565;23;20197;-81
2021/07/08 04:22:39;;;;;;;11.00;4.45;;;16.30;99.90;;;;;;6126678;23;20565;-82
2021/07/08 04:25:07;;;;;;;8.20;4.10;;;16.10;99.90;;;;;;6128547;23;20212;-80
2021/07/08 04:27:35;;;;;;;7.32;4.10;;;16.20;99.90;;;;;;6128185;23;20204;-81
2021/07/08 04:30:02;;;;;;;9.63;4.60;;;16.10;99.90;;;;;;6127048;23;20261;-80
2021/07/08 04:32:30;;;;;;;8.68;3.92;;;16.00;99.90;;;;;;6126964;23;20181;-81
2021/07/08 04:34:57;;;;;;;7.53;4.10;;;16.10;99.90;;;;;;6129185;23;20212;-81
2021/07/08 04:37:24;;;;;;;9.48;4.25;;;16.20;99.90;;;;;;6127329;23;20237;-81
2021/07/08 04:39:51;;;;;;;12.32;4.60;;;16.30;99.90;;;;;;6127510;23;20388;-81
2021/07/08 04:42:18;;;;;;;6.03;4.63;;;16.40;99.90;;;;;;6128237;23;20177;-81
2021/07/08 04:44:47;;;;;;;9.75;4.38;;;16.40;99.90;;;;;;6128328;23;20205;-80
2021/07/08 04:47:14;;;;;;;8.80;5.25;;;16.60;99.90;;;;;;6127868;23;20192;-80
2021/07/08 04:49:42;;;;;;;9.70;4.10;;;16.60;99.90;;;;;;6127458;23;20232;-80
2021/07/08 04:52:11;;;;;;;7.47;4.45;;;16.60;99.90;;;;;;6127835;23;20209;-81
2021/07/08 04:54:38;;;;;;;10.73;4.28;;;16.80;99.90;;;;;;6128643;23;20631;-81
2021/07/08 04:57:05;;;;;;;7.50;4.10;;;16.90;99.90;;;;;;6127425;23;20184;-81
2021/07/08 04:59:32;;;;;;;7.38;4.18;;;16.90;99.90;;;;;;6127019;23;20197;-81
2021/07/08 05:01:59;;;;;;;9.60;4.00;;;16.90;99.90;;;;;;6128122;23;20192;-80
2021/07/08 05:04:26;;;;;;;7.35;5.40;;;17.00;99.90;;;;;;6128078;23;20215;-81
2021/07/08 05:06:54;;;;;;;9.73;4.72;;;17.20;99.90;;;;;;6127508;23;20333;-81
2021/07/08 05:09:21;;;;;;;8.60;3.70;;;17.20;99.90;;;;;;6128987;23;20203;-80
2021/07/08 05:11:48;;;;;;;8.98;3.80;;;17.30;99.90;;;;;;6127767;23;20711;-81
2021/07/08 05:14:15;;;;;;;7.95;4.15;;;17.40;99.90;;;;;;6128116;23;20208;-81
2021/07/08 05:16:42;;;;;;;9.82;3.75;;;17.40;99.90;;;;;;6127762;23;20780;-82
2021/07/08 05:19:09;;;;;;;12.15;3.75;;;17.40;99.90;;;;;;6127802;23;20201;-82
2021/07/08 05:21:42;;;;;;;7.97;4.10;;;17.50;99.90;;;;;;6127249;23;20208;-81
2021/07/08 05:24:10;;;;;;;6.18;4.10;;;17.50;99.90;;;;;;6128600;23;20503;-81
2021/07/08 05:26:37;;;;;;;8.50;3.50;;;17.50;99.90;;;;;;6127682;23;20211;-82
2021/07/08 05:29:04;;;;;;;11.73;4.50;;;17.50;99.90;;;;;;6127296;23;20228;-81
2021/07/08 05:31:31;;;;;;;8.77;4.43;;;17.50;99.90;;;;;;6127473;23;20185;-81
2021/07/08 05:33:57;;;;;;;7.25;4.25;;;17.50;99.90;;;;;;6128220;23;20259;-81
2021/07/08 05:36:24;;;;;;;5.38;4.07;;;17.60;99.90;;;;;;6128048;23;20204;-82
2021/07/08 05:38:51;;;;;;;8.60;3.95;;;17.60;99.90;;;;;;6127423;23;20201;-81
2021/07/08 05:41:19;;;;;;;10.20;4.57;;;17.70;99.90;;;;;;6127219;23;20192;-81
2021/07/08 05:43:46;;;;;;;7.65;4.03;;;17.50;99.90;;;;;;6127506;23;21004;-80
2021/07/08 05:46:13;;;;;;;8.20;4.03;;;17.60;99.90;;;;;;6125398;23;20177;-78
2021/07/08 05:48:40;;;;;;;7.03;4.03;;;17.70;99.90;;;;;;6126815;23;20283;-79
2021/07/08 05:51:07;;;;;;;6.97;4.22;;;17.90;99.90;;;;;;6128229;23;20666;-79
2021/07/08 05:53:33;;;;;;;8.07;4.13;;;17.90;99.90;;;;;;6125894;23;20178;-80
2021/07/08 05:56:00;;;;;;;9.68;4.10;;;18.10;99.90;;;;;;6128338;23;20171;-82
2021/07/08 05:58:28;;;;;;;9.23;3.97;;;18.20;99.90;;;;;;6127741;23;20211;-81
2021/07/08 06:00:55;;;;;;;7.50;4.30;;;18.30;99.90;;;;;;6128358;23;20181;-81
2021/07/08 06:03:23;;;;;;;10.27;4.20;;;18.50;99.90;;;;;;6129469;23;20232;-81
2021/07/08 06:05:51;;;;;;;6.00;4.00;;;18.30;99.90;;;;;;6128517;23;20208;-81
2021/07/08 06:08:18;;;;;;;9.10;4.65;;;18.50;99.90;;;;;;6125779;23;20197;-81
2021/07/08 06:10:45;;;;;;;8.82;5.20;;;18.50;99.90;;;;;;6124738;23;20256;-82
2021/07/08 06:13:12;;;;;;;8.75;4.20;;;18.80;99.90;;;;;;6126925;23;20181;-81
2021/07/08 06:15:41;;;;;;;7.80;4.30;;;18.90;99.90;;;;;;6127141;23;20200;-82
2021/07/08 06:18:08;;;;;;;11.70;3.83;;;19.10;99.90;;;;;;6126859;23;20177;-82
2021/07/08 06:20:35;;;;;;;6.20;3.80;;;19.30;99.90;;;;;;6123814;23;20280;-81
2021/07/08 06:23:01;;;;;;;6.22;3.83;;;19.50;99.90;;;;;;6126591;23;20205;-81
2021/07/08 06:25:30;;;;;;;6.47;4.07;;;19.30;99.90;;;;;;6127292;23;20237;-84
2021/07/08 06:27:57;;;;;;;6.25;3.95;;;19.40;99.90;;;;;;6128581;23;20205;-82
2021/07/08 06:30:24;;;;;;;15.18;4.70;;;19.50;99.90;;;;;;6128100;23;20694;-81
2021/07/08 06:32:53;;;;;;;8.20;3.42;;;19.40;99.90;;;;;;6127879;23;20247;-82
2021/07/08 06:35:19;;;;;;;8.18;3.92;;;19.50;99.90;;;;;;6129937;23;20204;-82
2021/07/08 06:37:47;;;;;;;3.63;3.38;;;19.60;99.90;;;;;;6129921;23;20209;-81
2021/07/08 06:40:17;;;;;;;8.35;3.78;;;19.50;99.90;;;;;;6128038;23;20228;-82
2021/07/08 06:42:43;;;;;;;7.78;3.50;;;19.60;99.90;;;;;;6128345;23;20173;-82
2021/07/08 06:45:13;;;;;;;7.78;3.80;;;19.50;99.90;;;;;;6128776;23;20224;-81
2021/07/08 06:47:42;;;;;;;4.47;3.97;;;19.60;99.90;;;;;;6128003;23;20197;-83
2021/07/08 06:50:11;;;;;;;7.70;4.15;;;19.70;99.90;;;;;;6128270;23;20532;-82
2021/07/08 06:52:39;;;;;;;7.22;3.78;;;19.60;99.90;;;;;;6128697;23;20187;-82
2021/07/08 06:55:07;;;;;;;7.07;3.70;;;19.70;99.90;;;;;;6127447;23;20259;-81
2021/07/08 06:57:34;;;;;;;4.70;3.70;;;19.80;99.90;;;;;;6126958;23;20225;-83
2021/07/08 07:00:01;;;;;;;3.83;3.35;;;19.70;99.90;;;;;;6126045;23;20670;-82
2021/07/08 07:02:28;;;;;;;9.05;3.85;;;19.90;99.90;;;;;;6126985;23;20674;-82
2021/07/08 07:04:55;;;;;;;6.90;3.58;;;20.30;99.90;;;;;;6126343;23;20553;-83
2021/07/08 07:07:23;;;;;;;7.55;4.18;;;20.30;99.90;;;;;;6125731;23;20720;-83
2021/07/08 07:09:50;;;;;;;8.27;3.55;;;20.50;99.90;;;;;;6125242;23;20240;-82
2021/07/08 07:12:17;;;;;;;7.18;3.58;;;20.50;99.90;;;;;;6126432;23;20698;-82
2021/07/08 07:14:44;;;;;;;5.55;3.55;;;20.60;99.90;;;;;;6126921;23;20181;-82
2021/07/08 07:17:10;;;;;;;7.82;3.38;;;20.80;99.90;;;;;;6127907;23;20188;-82
2021/07/08 07:19:37;;;;;;;9.73;3.50;;;20.80;99.90;;;;;;6127206;23;20201;-82
2021/07/08 07:22:04;;;;;;;5.30;3.25;;;21.00;99.90;;;;;;6128097;23;20192;-82
2021/07/08 07:24:33;;;;;;;5.68;3.33;;;21.10;99.90;;;;;;6127786;23;20220;-82
2021/07/08 07:27:00;;;;;;;5.88;3.90;;;21.20;99.90;;;;;;6128179;23;20188;-82
2021/07/08 07:29:26;;;;;;;6.97;3.65;;;21.00;99.90;;;;;;6127216;23;20197;-82
2021/07/08 07:31:53;;;;;;;3.67;3.08;;;21.10;99.90;;;;;;6127491;23;20209;-82
2021/07/08 07:34:20;;;;;;;8.57;3.45;;;20.90;99.90;;;;;;6127457;23;20566;-82
2021/07/08 07:36:48;;;;;;;4.95;3.13;;;21.20;99.90;;;;;;6128221;23;20660;-82
2021/07/08 07:39:14;;;;;;;4.32;2.88;;;21.40;99.90;;;;;;6127337;23;20209;-82
2021/07/08 07:41:43;;;;;;;4.90;3.20;;;21.60;99.90;;;;;;6126983;23;20264;-83
2021/07/08 07:44:10;;;;;;;6.43;3.22;;;21.70;99.90;;;;;;6127302;23;20173;-82
2021/07/08 07:46:36;;;;;;;13.60;9.27;;;21.80;99.90;;;;;;6127762;23;20216;-82
2021/07/08 07:49:03;;;;;;;6.60;3.30;;;21.70;99.90;;;;;;6127755;23;20279;-82
2021/07/08 07:51:30;;;;;;;5.53;3.30;;;21.60;99.90;;;;;;6124069;23;20181;-83
2021/07/08 07:53:58;;;;;;;7.85;3.60;;;21.60;99.90;;;;;;6127070;23;20220;-83
2021/07/08 07:56:25;;;;;;;4.35;3.17;;;21.70;99.90;;;;;;6127070;23;20179;-82
2021/07/08 07:58:53;;;;;;;4.68;3.38;;;21.80;99.90;;;;;;6126776;23;20859;-83
2021/07/08 08:01:21;;;;;;;5.82;3.20;;;21.80;99.90;;;;;;6126103;23;20647;-83
2021/07/08 08:03:49;;;;;;;10.35;3.30;;;21.90;99.90;;;;;;6127134;23;20183;-83
2021/07/08 08:09:00;;;;;;;5.55;3.28;;;21.80;99.90;;;;;;6127483;23;20252;-83
2021/07/08 08:11:27;;;;;;;4.07;3.28;;;21.70;99.90;;;;;;6127051;23;20227;-83
2021/07/08 08:13:55;;;;;;;4.18;2.95;;;21.60;99.90;;;;;;6127961;23;20208;-83
2021/07/08 08:16:22;;;;;;;7.07;3.45;;;21.90;99.90;;;;;;6126623;23;20168;-83
2021/07/08 08:18:49;;;;;;;5.90;3.17;;;22.10;99.90;;;;;;6126534;23;20272;-82
2021/07/08 08:21:16;;;;;;;9.77;3.55;;;22.10;99.90;;;;;;6126175;23;20261;-83
2021/07/08 08:23:43;;;;;;;6.13;2.85;;;22.20;99.90;;;;;;6126708;23;20228;-82
2021/07/08 08:26:10;;;;;;;6.30;2.95;;;22.20;99.90;;;;;;6127021;23;20204;-83
2021/07/08 08:28:36;;;;;;;6.72;3.10;;;22.20;99.90;;;;;;6126265;23;20276;-83
2021/07/08 08:31:05;;;;;;;4.88;2.90;;;22.20;99.90;;;;;;6126739;23;20188;-83
2021/07/08 08:33:31;;;;;;;3.42;3.10;;;22.30;99.90;;;;;;6127081;23;20190;-83
2021/07/08 08:35:58;;;;;;;4.07;3.03;;;22.20;99.90;;;;;;6126854;23;20173;-83
2021/07/08 08:38:25;;;;;;;3.42;2.70;;;22.30;99.90;;;;;;6127964;23;20245;-83
2021/07/08 08:40:52;;;;;;;6.03;3.40;;;22.30;99.90;;;;;;6127995;23;20263;-83
2021/07/08 08:43:20;;;;;;;6.13;2.90;;;22.40;99.90;;;;;;6128395;23;20642;-83
2021/07/08 08:45:47;;;;;;;4.30;2.92;;;22.40;99.90;;;;;;6127332;23;20256;-82
2021/07/08 08:48:16;;;;;;;6.43;2.92;;;22.50;99.90;;;;;;6127469;23;20533;-83
2021/07/08 08:50:44;;;;;;;5.75;3.25;;;22.60;99.90;;;;;;6124153;23;20515;-83
2021/07/08 08:53:12;;;;;;;3.40;2.92;;;22.40;99.90;;;;;;6126697;23;20216;-82
2021/07/08 08:55:40;;;;;;;6.22;3.40;;;22.50;99.90;;;;;;6126112;23;20659;-82
2021/07/08 08:58:08;;;;;;;8.27;2.90;;;22.50;99.90;;;;;;6125600;23;20183;-83
2021/07/08 09:00:49;;;;;;;3.38;2.92;;;22.90;99.90;;;;;;6124341;23;20312;-82
2021/07/08 09:03:20;;;;;;;4.82;3.00;;;23.10;99.90;;;;;;6126759;23;20635;-83
2021/07/08 09:05:50;;;;;;;5.43;3.03;;;23.20;99.90;;;;;;6126422;23;20168;-83
2021/07/08 09:08:21;;;;;;;4.22;3.00;;;23.30;99.90;;;;;;6126082;23;20201;-83
2021/07/08 09:10:51;;;;;;;6.65;3.10;;;23.40;99.90;;;;;;6126527;23;20615;-83
2021/07/08 09:13:18;;;;;;;5.13;3.58;;;23.00;99.90;;;;;;6125744;23;20189;-83
2021/07/08 09:15:46;;;;;;;4.75;3.55;;;23.10;99.90;;;;;;6125747;23;20536;-83
2021/07/08 09:18:14;;;;;;;5.22;3.25;;;23.30;99.90;;;;;;6125408;23;20188;-82
2021/07/08 09:20:43;;;;;;;5.90;2.85;;;23.50;99.90;;;;;;6125955;23;20181;-82
2021/07/08 09:23:13;;;;;;;7.03;3.28;;;23.30;99.90;;;;;;6125641;23;20189;-83
2021/07/08 09:25:41;;;;;;;4.32;3.30;;;23.50;99.90;;;;;;6119053;23;20179;-84
2021/07/08 09:28:22;;;;;;;7.93;3.30;;;23.60;99.90;;;;;;6125194;23;20185;-84
2021/07/08 09:30:59;;;;;;;6.03;3.35;;;23.60;99.90;;;;;;6124704;23;20165;-83
2021/07/08 09:33:40;;;;;;;5.03;3.10;;;23.40;99.90;;;;;;6125381;23;20216;-83
2021/07/08 09:36:13;;;;;;;7.10;3.20;;;23.20;99.90;;;;;;6122799;23;20164;-84
2021/07/08 09:38:42;;;;;;;6.63;3.08;;;23.20;99.90;;;;;;6124211;23;20264;-83
2021/07/08 09:41:13;;;;;;;6.45;3.42;;;23.20;99.90;;;;;;6124322;23;20584;-84
2021/07/08 09:43:41;;;;;;;6.40;3.33;;;23.30;99.90;;;;;;6123293;23;20498;-83
2021/07/08 09:46:09;;;;;;;7.00;3.38;;;23.40;99.90;;;;;;6125280;23;20176;-84
2021/07/08 09:48:36;;;;;;;7.15;2.80;;;23.70;99.90;;;;;;6125350;23;20603;-82
2021/07/08 09:51:03;;;;;;;8.48;3.70;;;24.00;99.90;;;;;;6123506;23;20196;-82
2021/07/08 09:53:32;;;;;;;9.63;3.47;;;24.00;99.90;;;;;;6125009;23;20185;-82
2021/07/08 09:56:10;;;;;;;6.60;3.08;;;24.10;99.90;;;;;;6123782;23;20698;-82
2021/07/08 09:58:50;;;;;;;4.07;2.70;;;24.50;99.90;;;;;;6125778;23;20197;-82
2021/07/08 10:01:17;;;;;;;6.15;3.50;;;24.60;99.90;;;;;;6120693;23;20588;-82
2021/07/08 10:03:48;;;;;;;5.63;3.47;;;24.40;99.90;;;;;;6123347;23;20248;-82
2021/07/08 10:06:15;;;;;;;7.00;3.33;;;24.40;99.90;;;;;;6125055;23;20178;-83
2021/07/08 10:08:45;;;;;;;5.57;3.13;;;24.60;99.90;;;;;;6124686;23;20280;-83
2021/07/08 10:11:13;;;;;;;3.45;2.83;;;24.30;99.90;;;;;;6124778;23;20260;-83
2021/07/08 10:13:41;;;;;;;3.90;2.88;;;24.60;99.90;;;;;;6126934;23;20518;-84
2021/07/08 10:16:10;;;;;;;5.65;3.25;;;24.70;99.90;;;;;;6125323;23;20185;-82
2021/07/08 10:18:38;;;;;;;5.97;3.45;;;24.60;99.90;;;;;;6124914;23;20275;-83
2021/07/08 10:21:07;;;;;;;4.53;2.88;;;25.00;99.90;;;;;;6126434;23;20164;-84
2021/07/08 10:23:36;;;;;;;7.97;3.05;;;24.70;99.90;;;;;;6127344;23;20216;-83
2021/07/08 10:26:06;;;;;;;6.18;3.10;;;24.90;99.90;;;;;;6125941;23;20627;-83
2021/07/08 10:28:36;;;;;;;7.03;3.30;;;24.90;99.90;;;;;;6126385;23;20201;-84
2021/07/08 10:31:03;;;;;;;4.95;3.40;;;25.20;99.90;;;;;;6125099;23;20502;-87
2021/07/08 10:33:30;;;;;;;5.15;2.70;;;25.90;99.90;;;;;;6123251;23;20232;-83
2021/07/08 10:35:58;;;;;;;2.80;2.60;;;26.10;99.90;;;;;;6124482;23;20965;-83
2021/07/08 10:38:37;;;;;;;3.53;2.63;;;26.10;99.90;;;;;;6125314;23;20185;-83
2021/07/08 10:41:45;;;;;;;3.63;2.35;;;25.80;99.90;;;;;;6125071;23;20241;-83
2021/07/08 10:44:41;;;;;;;5.85;2.80;;;25.90;99.90;;;;;;6125041;23;20248;-83
2021/07/08 10:47:38;;;;;;;5.10;2.42;;;26.10;99.90;;;;;;6125032;23;20204;-83
2021/07/08 10:50:08;;;;;;;3.25;2.42;;;26.40;99.90;;;;;;6124298;23;20197;-85
2021/07/08 10:52:47;;;;;;;5.30;2.70;;;26.50;99.90;;;;;;6122969;23;20568;-85
2021/07/08 10:55:36;;;;;;;3.25;2.35;;;26.70;99.90;;;;;;6125125;23;20220;-84
2021/07/08 10:58:05;;;;;;;4.40;2.75;;;25.70;99.90;;;;;;6125650;23;20176;-85
2021/07/08 11:00:49;;;;;;;4.50;2.60;;;25.20;99.90;;;;;;6125038;23;20600;-84
2021/07/08 11:03:38;;;;;;;6.90;2.85;;;25.30;99.90;;;;;;6125611;23;20244;-83
2021/07/08 11:06:17;;;;;;;4.63;2.70;;;25.50;99.90;;;;;;6123168;23;20161;-84
2021/07/08 11:08:57;;;;;;;7.13;3.15;;;25.50;99.90;;;;;;6124553;23;20231;-84
2021/07/08 11:12:01;;;;;;;4.70;2.78;;;25.70;99.90;;;;;;6124798;23;20165;-84
2021/07/08 11:14:48;;;;;;;6.25;2.55;;;25.50;99.90;;;;;;6125213;23;20179;-84
2021/07/08 11:17:19;;;;;;;6.45;2.83;;;25.90;99.90;;;;;;6124395;23;20595;-84
2021/07/08 11:19:50;;;;;;;7.70;2.75;;;26.00;99.90;;;;;;6125900;23;20222;-85
2021/07/08 11:22:37;;;;;;;3.10;2.80;;;25.60;99.90;;;;;;6127144;23;20580;-85
2021/07/08 11:25:10;;;;;;;4.82;2.65;;;25.30;99.90;;;;;;6126797;23;20565;-85
2021/07/08 11:27:43;;;;;;;3.58;2.70;;;25.80;99.90;;;;;;6126370;23;20279;-86
2021/07/08 11:30:30;;;;;;;5.40;3.00;;;25.20;99.90;;;;;;6126600;23;20204;-86
2021/07/08 11:33:00;;;;;;;4.70;3.15;;;25.30;99.90;;;;;;6126557;23;20185;-84
2021/07/08 11:35:31;;;;;;;7.35;3.17;;;25.60;99.90;;;;;;6127251;23;20662;-84
2021/07/08 11:38:01;;;;;;;8.73;3.30;;;26.50;99.90;;;;;;6126756;23;20208;-88
2021/07/08 11:40:33;;;;;;;6.80;3.17;;;26.20;99.90;;;;;;6126996;23;20197;-85
2021/07/08 11:43:02;;;;;;;7.18;3.03;;;26.10;99.90;;;;;;6128821;23;20192;-86
2021/07/08 11:45:31;;;;;;;7.97;2.85;;;27.20;99.90;;;;;;6126422;23;20256;-84
2021/07/08 11:47:59;;;;;;;6.60;3.10;;;26.90;99.90;;;;;;6124295;23;20169;-83
2021/07/08 11:50:27;;;;;;;3.63;2.88;;;26.10;99.90;;;;;;6126914;23;20604;-83
2021/07/08 11:53:07;;;;;;;4.85;2.75;;;26.10;99.90;;;;;;6124985;23;20217;-85
2021/07/08 11:55:35;;;;;;;6.07;2.90;;;25.90;99.90;;;;;;6127294;23;20240;-88
2021/07/08 11:58:03;;;;;;;4.90;2.90;;;25.60;99.90;;;;;;6126807;23;20192;-84
2021/07/08 12:00:37;;;;;;;8.52;3.08;;;25.60;99.90;;;;;;6127073;23;20193;-84
2021/07/08 12:03:19;;;;;;;6.93;2.83;;;26.10;99.90;;;;;;6127606;23;20639;-84
2021/07/08 12:05:46;;;;;;;5.30;2.80;;;26.10;99.90;;;;;;6127791;23;20631;-84
2021/07/08 12:08:22;;;;;;;5.78;3.33;;;26.70;99.90;;;;;;6128183;23;20228;-84
2021/07/08 12:10:54;;;;;;;6.43;2.50;;;27.00;99.90;;;;;;6126818;23;20643;-85
2021/07/08 12:13:21;;;;;;;3.35;2.47;;;26.90;99.90;;;;;;6127606;23;20620;-85
2021/07/08 12:15:49;;;;;;;7.32;2.95;;;25.90;99.90;;;;;;6126168;23;20177;-84
2021/07/08 12:18:16;;;;;;;3.42;2.60;;;25.80;99.90;;;;;;6126427;23;20171;-84
2021/07/08 12:21:06;;;;;;;6.35;2.50;;;25.90;99.90;;;;;;6128075;23;20212;-84
2021/07/08 12:23:40;;;;;;;5.72;2.67;;;25.80;99.90;;;;;;6128865;23;20231;-84
2021/07/08 12:26:21;;;;;;;6.95;2.75;;;26.00;99.90;;;;;;6129240;23;20177;-83
2021/07/08 12:28:48;;;;;;;6.13;2.40;;;25.90;99.90;;;;;;6130221;23;20204;-84
2021/07/08 12:31:18;;;;;;;5.10;2.83;;;26.10;99.90;;;;;;6129104;23;20181;-83
2021/07/08 12:33:53;;;;;;;7.40;3.10;;;26.60;99.90;;;;;;6128041;23;20567;-84
2021/07/08 12:36:20;;;;;;;4.32;2.50;;;26.20;99.90;;;;;;6129176;23;20176;-84
2021/07/08 12:38:47;;;;;;;6.50;2.83;;;26.10;99.90;;;;;;6126381;23;20264;-82
2021/07/08 12:41:16;;;;;;;6.65;3.05;;;26.10;99.90;;;;;;6129527;23;20259;-83
2021/07/08 12:43:43;;;;;;;4.88;2.33;;;26.40;99.90;;;;;;6129408;23;20682;-83
2021/07/08 12:46:11;;;;;;;7.63;2.70;;;27.10;99.90;;;;;;6130528;23;20205;-83
2021/07/08 12:48:39;;;;;;;4.32;2.30;;;27.10;99.90;;;;;;6125921;23;20365;-84
2021/07/08 12:51:06;;;;;;;4.68;2.45;;;26.60;99.90;;;;;;6124028;23;20242;-83
2021/07/08 12:53:33;;;;;;;4.70;2.60;;;26.20;99.90;;;;;;6125803;23;20213;-83
2021/07/08 12:56:10;;;;;;;5.80;2.20;;;26.00;99.90;;;;;;6127820;23;20205;-84
2021/07/08 12:58:37;;;;;;;6.80;2.80;;;26.30;99.90;;;;;;6128354;23;20587;-84